AUA593 LIBD-LOWW
Flight info
| Callsign | AUA593 |
|---|---|
| Flight time | 1h 15m |
| Altitude | 38000 |
| Route | BANAV DCT AIOSA DCT UNIPA DCT OBUTI OBUTI2W |
| Aircraft | A320/M-SDE3FGHIRWY/LB1 |
Departure
| Time | 2026-04-22 15:02 |
|---|---|
| Airport | Bari Karol Wojtyła International Airport (LIBD) |
Arrival
| Time | 2026-04-22 16:17 |
|---|---|
| Airport | Vienna International Airport (LOWW) |
| Time | Latitude | Longitude | Altitude | Speed | Heading |
|---|---|---|---|---|---|
| 2026-04-22 14:44 | 41.13547 | 16.76398 | 149 ft | 0 kts | 160° |
| 2026-04-22 14:53 | 41.13556 | 16.76394 | 149 ft | 3 kts | 160° |
| 2026-04-22 14:54 | 41.13575 | 16.76385 | 149 ft | 3 kts | 160° |
| 2026-04-22 14:54 | 41.13593 | 16.76375 | 148 ft | 3 kts | 149° |
| 2026-04-22 14:54 | 41.13606 | 16.76362 | 149 ft | 3 kts | 97° |
| 2026-04-22 14:54 | 41.13605 | 16.76349 | 149 ft | 10 kts | 68° |
| 2026-04-22 14:55 | 41.13599 | 16.76329 | 150 ft | 10 kts | 68° |
| 2026-04-22 14:55 | 41.13597 | 16.76324 | 150 ft | 12 kts | 68° |
| 2026-04-22 14:58 | 41.13609 | 16.76361 | 148 ft | 11 kts | 69° |
| 2026-04-22 14:58 | 41.13640 | 16.76473 | 143 ft | 15 kts | 70° |
| 2026-04-22 14:58 | 41.13709 | 16.76554 | 140 ft | 14 kts | 22° |
| 2026-04-22 14:58 | 41.13797 | 16.76553 | 139 ft | 11 kts | 22° |
| 2026-04-22 14:59 | 41.13825 | 16.76626 | 137 ft | 11 kts | 68° |
| 2026-04-22 14:59 | 41.13862 | 16.76757 | 132 ft | 17 kts | 69° |
| 2026-04-22 14:59 | 41.13900 | 16.76887 | 130 ft | 13 kts | 69° |
| 2026-04-22 14:59 | 41.13931 | 16.76997 | 128 ft | 15 kts | 69° |
| 2026-04-22 15:00 | 41.13983 | 16.77178 | 124 ft | 24 kts | 69° |
| 2026-04-22 15:00 | 41.14032 | 16.77349 | 119 ft | 15 kts | 60° |
| 2026-04-22 15:00 | 41.14112 | 16.77407 | 116 ft | 11 kts | 17° |
| 2026-04-22 15:00 | 41.14128 | 16.77413 | 115 ft | 1 kts | 17° |
| 2026-04-22 15:01 | 41.14183 | 16.77418 | 113 ft | 13 kts | 346° |
| 2026-04-22 15:01 | 41.14209 | 16.77314 | 114 ft | 14 kts | 248° |
| 2026-04-22 15:01 | 41.14164 | 16.77158 | 121 ft | 24 kts | 250° |
| 2026-04-22 15:01 | 41.14038 | 16.76705 | 135 ft | 91 kts | 248° |
| 2026-04-22 15:02 | 41.13733 | 16.75635 | 196 ft | 151 kts | 250° |
| 2026-04-22 15:02 | 41.13347 | 16.74240 | 735 ft | 169 kts | 252° |
| 2026-04-22 15:02 | 41.13082 | 16.73269 | 1355 ft | 169 kts | 253° |
| 2026-04-22 15:02 | 41.12677 | 16.71812 | 2236 ft | 171 kts | 253° |
| 2026-04-22 15:03 | 41.12245 | 16.70273 | 2907 ft | 181 kts | 254° |
| 2026-04-22 15:03 | 41.11781 | 16.68662 | 3534 ft | 193 kts | 253° |
| 2026-04-22 15:03 | 41.11281 | 16.66952 | 4128 ft | 205 kts | 253° |
| 2026-04-22 15:03 | 41.10759 | 16.65125 | 4672 ft | 219 kts | 254° |
| 2026-04-22 15:04 | 41.10262 | 16.63157 | 5197 ft | 231 kts | 264° |
| 2026-04-22 15:04 | 41.10442 | 16.61033 | 5757 ft | 239 kts | 297° |
| 2026-04-22 15:04 | 41.11490 | 16.59300 | 6461 ft | 249 kts | 327° |
| 2026-04-22 15:04 | 41.13130 | 16.58551 | 7276 ft | 257 kts | 356° |
| 2026-04-22 15:05 | 41.14882 | 16.59122 | 8209 ft | 269 kts | 28° |
| 2026-04-22 15:05 | 41.16380 | 16.60692 | 9073 ft | 280 kts | 36° |
| 2026-04-22 15:05 | 41.17856 | 16.62421 | 9954 ft | 286 kts | 36° |
| 2026-04-22 15:05 | 41.19366 | 16.64224 | 10604 ft | 300 kts | 37° |
| 2026-04-22 15:06 | 41.20965 | 16.66129 | 11110 ft | 318 kts | 37° |
| 2026-04-22 15:06 | 41.22395 | 16.67831 | 11515 ft | 333 kts | 37° |
| 2026-04-22 15:06 | 41.22631 | 16.68111 | 11580 ft | 335 kts | 37° |
| 2026-04-22 15:06 | 41.23721 | 16.69410 | 11908 ft | 343 kts | 37° |
| 2026-04-22 15:07 | 41.25518 | 16.71553 | 12644 ft | 351 kts | 37° |
| 2026-04-22 15:07 | 41.27353 | 16.73736 | 13385 ft | 358 kts | 36° |
| 2026-04-22 15:07 | 41.29231 | 16.75961 | 14084 ft | 365 kts | 36° |
| 2026-04-22 15:07 | 41.31137 | 16.78215 | 14767 ft | 369 kts | 36° |
| 2026-04-22 15:08 | 41.33062 | 16.80496 | 15515 ft | 372 kts | 35° |
| 2026-04-22 15:08 | 41.35027 | 16.82828 | 16247 ft | 375 kts | 35° |
| 2026-04-22 15:08 | 41.37015 | 16.85080 | 16962 ft | 374 kts | 28° |
| 2026-04-22 15:08 | 41.39223 | 16.86861 | 17665 ft | 368 kts | 17° |
| 2026-04-22 15:09 | 41.41590 | 16.88103 | 18346 ft | 367 kts | 11° |
| 2026-04-22 15:09 | 41.44007 | 16.89249 | 18942 ft | 370 kts | 11° |
| 2026-04-22 15:09 | 41.46442 | 16.90410 | 19560 ft | 373 kts | 11° |
| 2026-04-22 15:09 | 41.48893 | 16.91588 | 20187 ft | 376 kts | 10° |
| 2026-04-22 15:10 | 41.51364 | 16.92779 | 20830 ft | 378 kts | 9° |
| 2026-04-22 15:10 | 41.53848 | 16.93951 | 21473 ft | 379 kts | 7° |
| 2026-04-22 15:10 | 41.56360 | 16.95001 | 22127 ft | 378 kts | 5° |
| 2026-04-22 15:10 | 41.58891 | 16.95956 | 22783 ft | 379 kts | 3° |
| 2026-04-22 15:11 | 41.61441 | 16.96873 | 23429 ft | 380 kts | 2° |
| 2026-04-22 15:11 | 41.63997 | 16.97786 | 23982 ft | 382 kts | 2° |
| 2026-04-22 15:11 | 41.66568 | 16.98719 | 24483 ft | 384 kts | 2° |
| 2026-04-22 15:11 | 41.69150 | 16.99676 | 24969 ft | 386 kts | 2° |
| 2026-04-22 15:12 | 41.71726 | 17.00895 | 25433 ft | 403 kts | 12° |
| 2026-04-22 15:12 | 41.74211 | 17.02807 | 25899 ft | 422 kts | 22° |
| 2026-04-22 15:12 | 41.76514 | 17.05368 | 26335 ft | 436 kts | 29° |
| 2026-04-22 15:12 | 41.78785 | 17.08082 | 26738 ft | 439 kts | 29° |
| 2026-04-22 15:13 | 41.81072 | 17.10812 | 27146 ft | 441 kts | 28° |
| 2026-04-22 15:13 | 41.83371 | 17.13555 | 27559 ft | 444 kts | 28° |
| 2026-04-22 15:13 | 41.85686 | 17.16311 | 27957 ft | 446 kts | 28° |
| 2026-04-22 15:13 | 41.88117 | 17.18790 | 28362 ft | 432 kts | 18° |
| 2026-04-22 15:14 | 41.90732 | 17.20616 | 28751 ft | 416 kts | 8° |
| 2026-04-22 15:14 | 41.93434 | 17.21793 | 29125 ft | 403 kts | 359° |
| 2026-04-22 15:14 | 41.96157 | 17.22359 | 29494 ft | 390 kts | 351° |
| 2026-04-22 15:14 | 41.98834 | 17.22356 | 29849 ft | 379 kts | 343° |
| 2026-04-22 15:15 | 42.01437 | 17.21823 | 30192 ft | 370 kts | 335° |
| 2026-04-22 15:15 | 42.03923 | 17.20945 | 30470 ft | 370 kts | 334° |
| 2026-04-22 15:15 | 42.06418 | 17.20051 | 30734 ft | 372 kts | 335° |
| 2026-04-22 15:15 | 42.08929 | 17.19158 | 30989 ft | 375 kts | 335° |
| 2026-04-22 15:16 | 42.11458 | 17.18258 | 31234 ft | 377 kts | 335° |
| 2026-04-22 15:16 | 42.14002 | 17.17350 | 31470 ft | 380 kts | 335° |
| 2026-04-22 15:16 | 42.16563 | 17.16437 | 31697 ft | 382 kts | 335° |
| 2026-04-22 15:16 | 42.19138 | 17.15523 | 31957 ft | 383 kts | 335° |
| 2026-04-22 15:17 | 42.21718 | 17.14612 | 32275 ft | 384 kts | 336° |
| 2026-04-22 15:17 | 42.24303 | 17.13699 | 32574 ft | 384 kts | 336° |
| 2026-04-22 15:17 | 42.26890 | 17.12782 | 32856 ft | 385 kts | 336° |
| 2026-04-22 15:17 | 42.29487 | 17.11858 | 33134 ft | 386 kts | 336° |
| 2026-04-22 15:18 | 42.32090 | 17.10931 | 33414 ft | 388 kts | 336° |
| 2026-04-22 15:18 | 42.34703 | 17.09999 | 33686 ft | 389 kts | 336° |
| 2026-04-22 15:18 | 42.37323 | 17.09067 | 33962 ft | 390 kts | 337° |
| 2026-04-22 15:18 | 42.39954 | 17.08131 | 34198 ft | 392 kts | 337° |
| 2026-04-22 15:19 | 42.42597 | 17.07190 | 34425 ft | 393 kts | 337° |
| 2026-04-22 15:19 | 42.45245 | 17.06246 | 34644 ft | 395 kts | 338° |
| 2026-04-22 15:19 | 42.47905 | 17.05298 | 34862 ft | 396 kts | 338° |
| 2026-04-22 15:19 | 42.50568 | 17.04345 | 35073 ft | 397 kts | 338° |
| 2026-04-22 15:20 | 42.52376 | 17.03696 | 35216 ft | 398 kts | 338° |
| 2026-04-22 15:20 | 42.55920 | 17.02422 | 35501 ft | 399 kts | 338° |
| 2026-04-22 15:20 | 42.58608 | 17.01449 | 35691 ft | 400 kts | 338° |
| 2026-04-22 15:20 | 42.61301 | 17.00473 | 35895 ft | 401 kts | 338° |
| 2026-04-22 15:21 | 42.63995 | 16.99504 | 36093 ft | 402 kts | 338° |
| 2026-04-22 15:21 | 42.66708 | 16.98529 | 36292 ft | 403 kts | 339° |
| 2026-04-22 15:21 | 42.69421 | 16.97557 | 36479 ft | 404 kts | 339° |
| 2026-04-22 15:21 | 42.72141 | 16.96578 | 36667 ft | 404 kts | 339° |
| 2026-04-22 15:22 | 42.74900 | 16.95580 | 36853 ft | 405 kts | 339° |
| 2026-04-22 15:22 | 42.77624 | 16.94590 | 37038 ft | 406 kts | 339° |
| 2026-04-22 15:22 | 42.80355 | 16.93593 | 37217 ft | 407 kts | 339° |
| 2026-04-22 15:22 | 42.83091 | 16.92599 | 37398 ft | 407 kts | 339° |
| 2026-04-22 15:23 | 42.85832 | 16.91610 | 37568 ft | 408 kts | 339° |
| 2026-04-22 15:23 | 42.88578 | 16.90619 | 37745 ft | 408 kts | 339° |
| 2026-04-22 15:23 | 42.91320 | 16.89626 | 37924 ft | 407 kts | 339° |
| 2026-04-22 15:23 | 42.94033 | 16.88648 | 38028 ft | 401 kts | 340° |
| 2026-04-22 15:24 | 42.99485 | 16.86667 | 38034 ft | 409 kts | 340° |
| 2026-04-22 15:24 | 43.04981 | 16.84654 | 38044 ft | 409 kts | 340° |
| 2026-04-22 15:25 | 43.10479 | 16.82642 | 38048 ft | 409 kts | 340° |
| 2026-04-22 15:25 | 43.15979 | 16.80627 | 38053 ft | 410 kts | 340° |
| 2026-04-22 15:26 | 43.21494 | 16.78600 | 38063 ft | 411 kts | 340° |
| 2026-04-22 15:26 | 43.27016 | 16.76572 | 38073 ft | 411 kts | 340° |
| 2026-04-22 15:27 | 43.32544 | 16.74537 | 38074 ft | 412 kts | 340° |
| 2026-04-22 15:27 | 43.38081 | 16.72498 | 38073 ft | 412 kts | 340° |
| 2026-04-22 15:28 | 43.43621 | 16.70450 | 38070 ft | 413 kts | 340° |
| 2026-04-22 15:28 | 43.49172 | 16.68389 | 38071 ft | 413 kts | 340° |
| 2026-04-22 15:29 | 43.54768 | 16.66315 | 38078 ft | 414 kts | 340° |
| 2026-04-22 15:30 | 43.62169 | 16.63566 | 38075 ft | 414 kts | 340° |
| 2026-04-22 15:30 | 43.68680 | 16.61141 | 38079 ft | 414 kts | 340° |
| 2026-04-22 15:31 | 43.74256 | 16.59063 | 38074 ft | 415 kts | 340° |
| 2026-04-22 15:31 | 43.78897 | 16.57330 | 38084 ft | 416 kts | 341° |
| 2026-04-22 15:32 | 43.85435 | 16.54880 | 38100 ft | 417 kts | 341° |
| 2026-04-22 15:32 | 43.91032 | 16.52779 | 38110 ft | 417 kts | 341° |
| 2026-04-22 15:33 | 43.96636 | 16.50663 | 38119 ft | 417 kts | 341° |
| 2026-04-22 15:33 | 44.02245 | 16.48583 | 38128 ft | 419 kts | 345° |
| 2026-04-22 15:34 | 44.08103 | 16.47831 | 38133 ft | 424 kts | 352° |
| 2026-04-22 15:34 | 44.13997 | 16.47338 | 38147 ft | 425 kts | 352° |
| 2026-04-22 15:35 | 44.18942 | 16.46912 | 38155 ft | 425 kts | 352° |
| 2026-04-22 15:35 | 44.24851 | 16.46405 | 38167 ft | 425 kts | 352° |
| 2026-04-22 15:36 | 44.30760 | 16.45901 | 38170 ft | 426 kts | 352° |
| 2026-04-22 15:36 | 44.36672 | 16.45394 | 38182 ft | 426 kts | 352° |
| 2026-04-22 15:37 | 44.42584 | 16.44876 | 38185 ft | 426 kts | 352° |
| 2026-04-22 15:37 | 44.48504 | 16.44363 | 38196 ft | 426 kts | 353° |
| 2026-04-22 15:38 | 44.54417 | 16.43859 | 38201 ft | 426 kts | 353° |
| 2026-04-22 15:38 | 44.63301 | 16.43071 | 38212 ft | 427 kts | 353° |
| 2026-04-22 15:39 | 44.69232 | 16.42558 | 38204 ft | 427 kts | 353° |
| 2026-04-22 15:39 | 44.75200 | 16.42035 | 38222 ft | 426 kts | 353° |
| 2026-04-22 15:40 | 44.81125 | 16.41524 | 38216 ft | 427 kts | 353° |
| 2026-04-22 15:40 | 44.87057 | 16.41005 | 38217 ft | 427 kts | 353° |
| 2026-04-22 15:41 | 44.92986 | 16.40486 | 38221 ft | 427 kts | 353° |
| 2026-04-22 15:41 | 44.98912 | 16.39966 | 38221 ft | 427 kts | 353° |
| 2026-04-22 15:42 | 45.04842 | 16.39445 | 38219 ft | 427 kts | 354° |
| 2026-04-22 15:42 | 45.10771 | 16.38914 | 38218 ft | 427 kts | 354° |
| 2026-04-22 15:43 | 45.16700 | 16.38388 | 38217 ft | 427 kts | 354° |
| 2026-04-22 15:43 | 45.22628 | 16.37862 | 38220 ft | 427 kts | 354° |
| 2026-04-22 15:44 | 45.28559 | 16.37337 | 38212 ft | 427 kts | 354° |
| 2026-04-22 15:44 | 45.34487 | 16.36806 | 38207 ft | 427 kts | 354° |
| 2026-04-22 15:45 | 45.40460 | 16.36267 | 38204 ft | 427 kts | 354° |
| 2026-04-22 15:45 | 45.46391 | 16.35736 | 38196 ft | 427 kts | 354° |
| 2026-04-22 15:46 | 45.52321 | 16.35199 | 38195 ft | 427 kts | 354° |
| 2026-04-22 15:46 | 45.58256 | 16.34669 | 38195 ft | 427 kts | 354° |
| 2026-04-22 15:47 | 45.64195 | 16.34143 | 38195 ft | 428 kts | 355° |
| 2026-04-22 15:47 | 45.70136 | 16.33609 | 38202 ft | 428 kts | 355° |
| 2026-04-22 15:48 | 45.76076 | 16.33074 | 38206 ft | 428 kts | 355° |
| 2026-04-22 15:48 | 45.82010 | 16.32528 | 38211 ft | 427 kts | 355° |
| 2026-04-22 15:49 | 45.87951 | 16.31977 | 38213 ft | 428 kts | 355° |
| 2026-04-22 15:49 | 45.93888 | 16.31442 | 38217 ft | 428 kts | 355° |
| 2026-04-22 15:50 | 45.99829 | 16.30902 | 38218 ft | 428 kts | 355° |
| 2026-04-22 15:50 | 46.05765 | 16.30365 | 38217 ft | 427 kts | 355° |
| 2026-04-22 15:51 | 46.11696 | 16.29816 | 38218 ft | 427 kts | 355° |
| 2026-04-22 15:51 | 46.17622 | 16.29270 | 38216 ft | 426 kts | 355° |
| 2026-04-22 15:52 | 46.23544 | 16.28737 | 38214 ft | 426 kts | 355° |
| 2026-04-22 15:52 | 46.29496 | 16.28191 | 38207 ft | 426 kts | 355° |
| 2026-04-22 15:53 | 46.35408 | 16.27633 | 38204 ft | 426 kts | 355° |
| 2026-04-22 15:53 | 46.41289 | 16.26617 | 37740 ft | 429 kts | 350° |
| 2026-04-22 15:54 | 46.44238 | 16.25920 | 37030 ft | 428 kts | 351° |
| 2026-04-22 15:54 | 46.47171 | 16.25221 | 36244 ft | 428 kts | 351° |
| 2026-04-22 15:54 | 46.50114 | 16.24516 | 35411 ft | 429 kts | 351° |
| 2026-04-22 15:54 | 46.53065 | 16.23807 | 34591 ft | 431 kts | 351° |
| 2026-04-22 15:55 | 46.56003 | 16.23106 | 34043 ft | 425 kts | 351° |
| 2026-04-22 15:55 | 46.58904 | 16.22417 | 33442 ft | 419 kts | 351° |
| 2026-04-22 15:55 | 46.61752 | 16.21739 | 32881 ft | 412 kts | 351° |
| 2026-04-22 15:55 | 46.64563 | 16.21076 | 32328 ft | 406 kts | 352° |
| 2026-04-22 15:56 | 46.67332 | 16.20423 | 31779 ft | 401 kts | 352° |
| 2026-04-22 15:56 | 46.70069 | 16.19770 | 31252 ft | 396 kts | 352° |
| 2026-04-22 15:56 | 46.72769 | 16.19122 | 30723 ft | 391 kts | 352° |
| 2026-04-22 15:56 | 46.75439 | 16.18480 | 30200 ft | 387 kts | 352° |
| 2026-04-22 15:57 | 46.78082 | 16.17845 | 29630 ft | 382 kts | 352° |
| 2026-04-22 15:57 | 46.80678 | 16.17221 | 29138 ft | 375 kts | 352° |
| 2026-04-22 15:57 | 46.83233 | 16.16608 | 28660 ft | 369 kts | 352° |
| 2026-04-22 15:57 | 46.85750 | 16.16007 | 28177 ft | 364 kts | 352° |
| 2026-04-22 15:58 | 46.88233 | 16.15412 | 27717 ft | 359 kts | 352° |
| 2026-04-22 15:58 | 46.90681 | 16.14823 | 27269 ft | 354 kts | 352° |
| 2026-04-22 15:58 | 46.93098 | 16.14242 | 26825 ft | 350 kts | 352° |
| 2026-04-22 15:58 | 46.95484 | 16.13667 | 26372 ft | 346 kts | 352° |
| 2026-04-22 15:59 | 46.97841 | 16.13099 | 25933 ft | 341 kts | 353° |
| 2026-04-22 15:59 | 47.00170 | 16.12538 | 25505 ft | 337 kts | 353° |
| 2026-04-22 15:59 | 47.02502 | 16.11974 | 25068 ft | 333 kts | 353° |
| 2026-04-22 15:59 | 47.04774 | 16.11427 | 24644 ft | 329 kts | 353° |
| 2026-04-22 16:00 | 47.06270 | 16.11068 | 24364 ft | 327 kts | 353° |
| 2026-04-22 16:00 | 47.09252 | 16.10348 | 23781 ft | 323 kts | 353° |
| 2026-04-22 16:00 | 47.11463 | 16.09811 | 23296 ft | 320 kts | 353° |
| 2026-04-22 16:00 | 47.13651 | 16.09277 | 22863 ft | 317 kts | 353° |
| 2026-04-22 16:01 | 47.15821 | 16.08747 | 22428 ft | 315 kts | 353° |
| 2026-04-22 16:01 | 47.17977 | 16.08221 | 21999 ft | 313 kts | 353° |
| 2026-04-22 16:01 | 47.20110 | 16.07703 | 21564 ft | 310 kts | 353° |
| 2026-04-22 16:01 | 47.22237 | 16.07191 | 21136 ft | 308 kts | 353° |
| 2026-04-22 16:02 | 47.24344 | 16.06682 | 20712 ft | 306 kts | 353° |
| 2026-04-22 16:02 | 47.26460 | 16.06168 | 20278 ft | 318 kts | 353° |
| 2026-04-22 16:02 | 47.28721 | 16.05622 | 19819 ft | 334 kts | 353° |
| 2026-04-22 16:02 | 47.31004 | 16.05064 | 19358 ft | 331 kts | 353° |
| 2026-04-22 16:03 | 47.33271 | 16.04506 | 18897 ft | 329 kts | 353° |
| 2026-04-22 16:03 | 47.35529 | 16.04045 | 18447 ft | 326 kts | 359° |
| 2026-04-22 16:03 | 47.37773 | 16.04226 | 17968 ft | 322 kts | 11° |
| 2026-04-22 16:03 | 47.39922 | 16.05087 | 17538 ft | 320 kts | 19° |
| 2026-04-22 16:04 | 47.42019 | 16.06145 | 17090 ft | 318 kts | 19° |
| 2026-04-22 16:04 | 47.44111 | 16.07187 | 16650 ft | 316 kts | 19° |
| 2026-04-22 16:04 | 47.46186 | 16.08211 | 16230 ft | 314 kts | 19° |
| 2026-04-22 16:04 | 47.48251 | 16.09226 | 15803 ft | 311 kts | 19° |
| 2026-04-22 16:05 | 47.49635 | 16.09907 | 15510 ft | 310 kts | 19° |
| 2026-04-22 16:05 | 47.52336 | 16.11244 | 14950 ft | 308 kts | 19° |
| 2026-04-22 16:05 | 47.54358 | 16.12249 | 14532 ft | 306 kts | 19° |
| 2026-04-22 16:05 | 47.56371 | 16.13253 | 14116 ft | 304 kts | 19° |
| 2026-04-22 16:06 | 47.58374 | 16.14255 | 13667 ft | 302 kts | 19° |
| 2026-04-22 16:06 | 47.59715 | 16.14925 | 13376 ft | 300 kts | 19° |
| 2026-04-22 16:06 | 47.62336 | 16.16231 | 12833 ft | 299 kts | 19° |
| 2026-04-22 16:06 | 47.64326 | 16.17224 | 12421 ft | 297 kts | 19° |
| 2026-04-22 16:07 | 47.66276 | 16.18202 | 12014 ft | 295 kts | 18° |
| 2026-04-22 16:07 | 47.68213 | 16.19171 | 11610 ft | 293 kts | 18° |
| 2026-04-22 16:07 | 47.69490 | 16.19810 | 11345 ft | 292 kts | 18° |
| 2026-04-22 16:07 | 47.71411 | 16.20771 | 10943 ft | 291 kts | 18° |
| 2026-04-22 16:08 | 47.73322 | 16.21727 | 10549 ft | 289 kts | 18° |
| 2026-04-22 16:08 | 47.75221 | 16.22693 | 10276 ft | 289 kts | 21° |
| 2026-04-22 16:08 | 47.76742 | 16.23888 | 10178 ft | 280 kts | 34° |
| 2026-04-22 16:08 | 47.78174 | 16.25786 | 9922 ft | 273 kts | 45° |
| 2026-04-22 16:09 | 47.79465 | 16.27856 | 9425 ft | 273 kts | 44° |
| 2026-04-22 16:09 | 47.80756 | 16.29912 | 8970 ft | 272 kts | 44° |
| 2026-04-22 16:09 | 47.82041 | 16.31955 | 8543 ft | 269 kts | 44° |
| 2026-04-22 16:09 | 47.83321 | 16.33994 | 8111 ft | 268 kts | 44° |
| 2026-04-22 16:10 | 47.84582 | 16.36009 | 7671 ft | 266 kts | 44° |
| 2026-04-22 16:10 | 47.85843 | 16.38021 | 7230 ft | 265 kts | 44° |
| 2026-04-22 16:10 | 47.87088 | 16.40010 | 6790 ft | 264 kts | 44° |
| 2026-04-22 16:10 | 47.88187 | 16.42229 | 6350 ft | 266 kts | 58° |
| 2026-04-22 16:11 | 47.88854 | 16.44814 | 5880 ft | 269 kts | 71° |
| 2026-04-22 16:11 | 47.89349 | 16.47524 | 5438 ft | 267 kts | 71° |
| 2026-04-22 16:11 | 47.89847 | 16.50190 | 4912 ft | 268 kts | 70° |
| 2026-04-22 16:11 | 47.90344 | 16.52839 | 4468 ft | 265 kts | 70° |
| 2026-04-22 16:12 | 47.90836 | 16.55465 | 4237 ft | 258 kts | 70° |
| 2026-04-22 16:12 | 47.91302 | 16.57972 | 4134 ft | 245 kts | 70° |
| 2026-04-22 16:12 | 47.91743 | 16.60339 | 4032 ft | 230 kts | 70° |
| 2026-04-22 16:12 | 47.92160 | 16.62580 | 3935 ft | 218 kts | 70° |
| 2026-04-22 16:13 | 47.92809 | 16.64474 | 3840 ft | 195 kts | 37° |
| 2026-04-22 16:13 | 47.94000 | 16.65255 | 3672 ft | 191 kts | 360° |
| 2026-04-22 16:13 | 47.95288 | 16.64881 | 3362 ft | 189 kts | 345° |
| 2026-04-22 16:13 | 47.96551 | 16.64338 | 3088 ft | 188 kts | 345° |
| 2026-04-22 16:14 | 47.97798 | 16.63808 | 3006 ft | 182 kts | 345° |
| 2026-04-22 16:14 | 47.98983 | 16.63305 | 2946 ft | 175 kts | 345° |
| 2026-04-22 16:14 | 48.00161 | 16.62806 | 2572 ft | 178 kts | 345° |
| 2026-04-22 16:14 | 48.01340 | 16.62307 | 2241 ft | 173 kts | 345° |
| 2026-04-22 16:15 | 48.02457 | 16.61836 | 1996 ft | 158 kts | 345° |
| 2026-04-22 16:15 | 48.03434 | 16.61419 | 1776 ft | 137 kts | 346° |
| 2026-04-22 16:15 | 48.04315 | 16.61043 | 1496 ft | 127 kts | 345° |
| 2026-04-22 16:15 | 48.05144 | 16.60692 | 1276 ft | 122 kts | 345° |
| 2026-04-22 16:16 | 48.05962 | 16.60343 | 1126 ft | 126 kts | 346° |
| 2026-04-22 16:16 | 48.06794 | 16.60000 | 1011 ft | 123 kts | 345° |
| 2026-04-22 16:16 | 48.07610 | 16.59658 | 861 ft | 124 kts | 343° |
| 2026-04-22 16:16 | 48.08434 | 16.59306 | 725 ft | 122 kts | 343° |
| 2026-04-22 16:17 | 48.09251 | 16.58971 | 630 ft | 121 kts | 343° |
| 2026-04-22 16:17 | 48.09939 | 16.58678 | 618 ft | 71 kts | 343° |
| 2026-04-22 16:17 | 48.10212 | 16.58566 | 618 ft | 22 kts | 344° |
| 2026-04-22 16:17 | 48.10349 | 16.58486 | 610 ft | 20 kts | 324° |
| 2026-04-22 16:18 | 48.10437 | 16.58330 | 618 ft | 19 kts | 295° |
| 2026-04-22 16:18 | 48.10466 | 16.58249 | 621 ft | 3 kts | 300° |
| 2026-04-22 16:18 | 48.10479 | 16.58213 | 613 ft | 0 kts | 301° |
| 2026-04-22 16:20 | 48.10498 | 16.58178 | 615 ft | 8 kts | 317° |
| 2026-04-22 16:21 | 48.10558 | 16.58139 | 618 ft | 11 kts | 343° |
| 2026-04-22 16:21 | 48.10641 | 16.58103 | 614 ft | 14 kts | 345° |
| 2026-04-22 16:21 | 48.10759 | 16.58055 | 618 ft | 21 kts | 345° |
| 2026-04-22 16:21 | 48.10910 | 16.57989 | 622 ft | 23 kts | 344° |
| 2026-04-22 16:22 | 48.11232 | 16.57854 | 612 ft | 25 kts | 344° |
| 2026-04-22 16:22 | 48.11398 | 16.57784 | 615 ft | 24 kts | 344° |
| 2026-04-22 16:22 | 48.11502 | 16.57689 | 617 ft | 16 kts | 293° |
| 2026-04-22 16:23 | 48.11635 | 16.57419 | 619 ft | 16 kts | 345° |
| 2026-04-22 16:23 | 48.11746 | 16.57373 | 624 ft | 16 kts | 345° |
| 2026-04-22 16:23 | 48.11830 | 16.57292 | 617 ft | 15 kts | 294° |
| 2026-04-22 16:24 | 48.11879 | 16.57138 | 617 ft | 18 kts | 296° |
| 2026-04-22 16:24 | 48.11960 | 16.56891 | 618 ft | 6 kts | 293° |
| 2026-04-22 16:24 | 48.11947 | 16.56871 | 621 ft | 3 kts | 193° |
| 2026-04-22 16:25 | 48.11920 | 16.56851 | 610 ft | 4 kts | 207° |
| 2026-04-22 16:25 | 48.11882 | 16.56824 | 610 ft | 0 kts | 205° |